Terminal Aerodrome Forecast
Issued by NWS

Home | Current Version | Previous Version | Text Only | Print | Product List | Glossary On
Versions: 1 2 3 4 5 6 7 8 9 10 11 12 13 14 15 16 17
395
FTUS41 KCAR 200536
TAFPQI
TAF
KPQI 200536Z 2006/2106 30010KT P6SM VCSH BKN050
     FM200800 30010KT P6SM SCT050
     FM201400 30015G25KT P6SM SCT050
     FM202200 32008G16KT P6SM SCT250
     FM210200 32008KT P6SM SCT250=

USA.gov is the U.S. government's official web portal to all federal, state and local government web resources and services.